Time;durP1;ratioP1;P1;durP2;ratioP2;P2;SDS_P1;SDS_P2;PMS_P1;PMS_P2;Temp;Humidity;BMP_temperature;BMP_pressure;BME280_temperature;BME280_humidity;BME280_pressure;Samples;Min_cycle;Max_cycle;Signal;HPM_P1;HPM_P2
2024/02/20 00:04:53;;;;;;;0.63;0.40;;;21.60;45.70;;;;;;10353707;28;20145;-57
2024/02/20 00:09:55;;;;;;;0.30;0.30;;;21.40;46.00;;;;;;10355774;28;20058;-55
2024/02/20 00:15:00;;;;;;;0.40;0.40;;;21.30;46.10;;;;;;10351266;28;20052;-58
2024/02/20 00:20:03;;;;;;;0.30;0.30;;;21.40;45.90;;;;;;10350761;28;20136;-52
2024/02/20 00:25:05;;;;;;;0.50;0.40;;;21.40;46.00;;;;;;10351755;28;20057;-53
2024/02/20 00:30:10;;;;;;;0.40;0.30;;;21.40;46.00;;;;;;10362823;28;20046;-55
2024/02/20 00:35:13;;;;;;;0.57;0.30;;;21.30;46.10;;;;;;10364474;28;20108;-55
2024/02/20 00:40:15;;;;;;;0.30;0.30;;;21.30;46.10;;;;;;10360954;28;20042;-54
2024/02/20 00:45:18;;;;;;;0.55;0.30;;;21.20;46.30;;;;;;10359733;28;20045;-56
2024/02/20 00:50:19;;;;;;;0.60;0.45;;;21.20;46.20;;;;;;10353561;28;20052;-52
2024/02/20 00:55:21;;;;;;;0.60;0.40;;;21.30;46.00;;;;;;10350332;28;20044;-58
2024/02/20 01:00:24;;;;;;;0.80;0.40;;;21.20;46.10;;;;;;10354133;28;20068;-56
2024/02/20 01:05:25;;;;;;;0.75;0.40;;;21.10;46.30;;;;;;10355626;28;20069;-54
2024/02/20 01:10:27;;;;;;;0.32;0.30;;;21.10;46.30;;;;;;10357873;28;20575;-54
2024/02/20 01:15:30;;;;;;;0.25;0.25;;;21.10;46.90;;;;;;10354819;28;20056;-56
2024/02/20 01:20:31;;;;;;;0.40;0.30;;;21.10;46.20;;;;;;10348565;28;20046;-54
2024/02/20 01:25:33;;;;;;;0.55;0.40;;;21.00;46.40;;;;;;10352380;28;20412;-55
2024/02/20 01:30:37;;;;;;;0.50;0.40;;;20.90;46.50;;;;;;10350772;28;20523;-55
2024/02/20 01:35:41;;;;;;;0.30;0.30;;;20.90;46.30;;;;;;10353984;28;20053;-54
2024/02/20 01:40:43;;;;;;;0.40;0.40;;;21.00;46.30;;;;;;10363059;28;20073;-56
2024/02/20 01:45:46;;;;;;;0.60;0.40;;;20.90;46.20;;;;;;10362431;28;20124;-53
2024/02/20 01:50:48;;;;;;;1.23;0.40;;;20.90;46.20;;;;;;10360664;28;20050;-53
2024/02/20 01:55:49;;;;;;;0.90;0.30;;;20.90;46.30;;;;;;10356161;28;20397;-57
2024/02/20 02:00:52;;;;;;;0.65;0.40;;;20.80;46.20;;;;;;10350482;28;20705;-56
2024/02/20 02:05:54;;;;;;;0.68;0.50;;;20.90;46.20;;;;;;10352828;28;20511;-56
2024/02/20 02:10:56;;;;;;;0.63;0.30;;;21.00;46.10;;;;;;10353042;28;20046;-54
2024/02/20 02:15:58;;;;;;;0.85;0.40;;;20.80;46.10;;;;;;10353909;28;20072;-55
2024/02/20 02:21:00;;;;;;;0.40;0.40;;;20.70;46.50;;;;;;10348559;28;20433;-57
2024/02/20 02:26:02;;;;;;;0.40;0.40;;;20.70;47.00;;;;;;10349130;28;20039;-51
2024/02/20 02:31:05;;;;;;;0.73;0.40;;;20.70;46.40;;;;;;10348439;28;20054;-54
2024/02/20 02:36:07;;;;;;;0.40;0.32;;;20.80;46.30;;;;;;10346239;28;20069;-56
2024/02/20 02:41:10;;;;;;;1.08;0.50;;;20.60;46.50;;;;;;10354244;28;20048;-55
2024/02/20 02:46:13;;;;;;;1.17;0.47;;;20.60;46.40;;;;;;10353930;28;20038;-58
2024/02/20 02:51:14;;;;;;;1.88;0.60;;;20.60;46.40;;;;;;10354896;28;20052;-55
2024/02/20 02:56:16;;;;;;;0.77;0.50;;;20.60;46.50;;;;;;10357409;28;20130;-57
2024/02/20 03:01:19;;;;;;;1.08;0.40;;;20.50;46.50;;;;;;10356424;28;20073;-52
2024/02/20 03:06:21;;;;;;;0.50;0.50;;;20.50;46.70;;;;;;10347554;28;20046;-57
2024/02/20 03:11:22;;;;;;;0.40;0.40;;;20.40;46.70;;;;;;10358011;28;20452;-53
2024/02/20 03:16:25;;;;;;;1.52;0.50;;;20.60;46.70;;;;;;10365285;28;20474;-55
2024/02/20 03:21:27;;;;;;;1.77;0.57;;;20.40;46.50;;;;;;10363220;28;20494;-56
2024/02/20 03:26:28;;;;;;;1.88;0.60;;;20.40;46.60;;;;;;10361178;28;20656;-57
2024/02/20 03:31:31;;;;;;;0.63;0.50;;;20.30;46.60;;;;;;10355491;28;20527;-56
2024/02/20 03:36:33;;;;;;;1.35;0.65;;;20.40;46.70;;;;;;10350160;28;20500;-56
2024/02/20 03:41:35;;;;;;;0.80;0.57;;;20.20;46.80;;;;;;10351657;28;20488;-63
2024/02/20 03:46:38;;;;;;;0.85;0.60;;;20.30;46.60;;;;;;10356259;28;20480;-57
2024/02/20 03:51:39;;;;;;;1.60;0.60;;;20.30;46.60;;;;;;10361638;28;20474;-56
2024/02/20 03:56:41;;;;;;;1.77;0.50;;;20.30;46.60;;;;;;10359809;28;20488;-58
2024/02/20 04:01:44;;;;;;;1.10;0.60;;;20.30;46.60;;;;;;10363058;28;20722;-57
2024/02/20 04:06:45;;;;;;;1.52;0.40;;;20.30;46.30;;;;;;10364476;28;20463;-58
2024/02/20 04:11:47;;;;;;;1.17;0.60;;;19.90;47.60;;;;;;10364076;28;20057;-53
2024/02/20 04:16:50;;;;;;;1.02;0.55;;;20.10;47.80;;;;;;10363571;28;20048;-53
2024/02/20 04:21:51;;;;;;;0.70;0.50;;;20.50;47.20;;;;;;10352539;28;20042;-55
2024/02/20 04:26:53;;;;;;;1.90;0.70;;;20.60;47.10;;;;;;10364579;28;20046;-53
2024/02/20 04:31:56;;;;;;;1.63;0.70;;;20.80;46.90;;;;;;10366348;28;20496;-56
2024/02/20 04:36:58;;;;;;;1.60;0.70;;;21.00;46.30;;;;;;10360949;28;20065;-53
2024/02/20 04:41:59;;;;;;;0.88;0.55;;;20.90;46.40;;;;;;10356494;28;20052;-60
2024/02/20 04:47:03;;;;;;;1.50;0.60;;;20.80;46.60;;;;;;10349445;28;20054;-56
2024/02/20 04:52:04;;;;;;;1.35;0.60;;;21.10;46.20;;;;;;10346220;28;20520;-52
2024/02/20 04:57:06;;;;;;;2.13;0.80;;;21.20;46.00;;;;;;10352663;28;20056;-56
2024/02/20 05:02:09;;;;;;;0.90;0.70;;;21.30;45.70;;;;;;10355383;28;20423;-57
2024/02/20 05:07:11;;;;;;;1.98;0.70;;;21.30;45.80;;;;;;10356562;28;21480;-57
2024/02/20 05:12:12;;;;;;;1.70;0.70;;;21.30;45.70;;;;;;10356927;28;20064;-56
2024/02/20 05:17:15;;;;;;;1.42;0.68;;;21.20;45.90;;;;;;10362413;28;20056;-57
2024/02/20 05:22:17;;;;;;;1.75;0.70;;;21.30;46.10;;;;;;10364248;28;20419;-56
2024/02/20 05:27:18;;;;;;;1.10;0.60;;;21.20;46.40;;;;;;10359421;28;20062;-55
2024/02/20 05:32:21;;;;;;;1.55;0.90;;;21.30;46.20;;;;;;10358314;28;20053;-56
2024/02/20 05:37:23;;;;;;;2.10;0.80;;;21.30;46.30;;;;;;10355540;28;20056;-59
2024/02/20 05:42:25;;;;;;;1.50;0.65;;;21.30;46.60;;;;;;10361651;28;20042;-60
2024/02/20 05:47:28;;;;;;;1.80;0.60;;;21.30;46.40;;;;;;10361066;28;20042;-58
2024/02/20 05:52:30;;;;;;;1.65;0.70;;;21.30;46.40;;;;;;10354950;28;20057;-58
2024/02/20 05:57:31;;;;;;;3.42;0.93;;;21.40;46.50;;;;;;10348353;28;20166;-57
2024/02/20 06:02:34;;;;;;;2.00;0.80;;;21.50;46.20;;;;;;10346735;28;20050;-57
2024/02/20 06:07:36;;;;;;;1.38;0.60;;;21.50;46.40;;;;;;10349094;28;20052;-57
2024/02/20 06:12:37;;;;;;;1.35;0.70;;;21.50;46.30;;;;;;10351393;28;20056;-59
2024/02/20 06:17:40;;;;;;;1.70;0.80;;;21.60;46.20;;;;;;10353087;28;20057;-58
2024/02/20 06:22:42;;;;;;;2.20;0.80;;;21.60;46.00;;;;;;10354953;28;20060;-58
2024/02/20 06:27:45;;;;;;;1.35;0.60;;;21.50;46.20;;;;;;10358526;28;20056;-59
2024/02/20 06:32:48;;;;;;;2.97;0.80;;;21.70;45.80;;;;;;10359191;28;20053;-59
2024/02/20 06:37:50;;;;;;;1.30;0.70;;;21.70;45.90;;;;;;10358780;28;20046;-59
2024/02/20 06:42:53;;;;;;;2.10;0.90;;;21.70;45.90;;;;;;10355803;28;20046;-58
2024/02/20 06:47:56;;;;;;;2.85;1.17;;;21.70;45.90;;;;;;10356339;28;20050;-58
2024/02/20 06:53:01;;;;;;;2.22;0.95;;;21.60;46.20;;;;;;10359052;28;20448;-57
2024/02/20 06:58:02;;;;;;;2.70;0.90;;;21.60;46.10;;;;;;10359382;28;20474;-56
2024/02/20 07:03:07;;;;;;;2.13;0.90;;;21.60;46.00;;;;;;10361636;28;20042;-58
2024/02/20 07:08:09;;;;;;;1.58;0.95;;;21.50;46.10;;;;;;10359952;28;20042;-58
2024/02/20 07:13:11;;;;;;;1.90;0.80;;;21.50;46.20;;;;;;10358124;28;20562;-57
2024/02/20 07:18:14;;;;;;;3.38;1.02;;;21.60;46.20;;;;;;10357467;28;20064;-60
2024/02/20 07:23:16;;;;;;;2.17;0.90;;;21.60;46.10;;;;;;10353507;28;20049;-59
2024/02/20 07:28:17;;;;;;;2.03;0.80;;;21.50;46.10;;;;;;10355553;28;20127;-59
2024/02/20 07:33:20;;;;;;;1.88;0.82;;;21.50;46.20;;;;;;10359389;28;20052;-59
2024/02/20 07:38:22;;;;;;;2.75;0.90;;;21.60;46.10;;;;;;10355629;28;20498;-59
2024/02/20 07:43:24;;;;;;;2.53;0.80;;;21.50;46.10;;;;;;10367185;28;20041;-55
2024/02/20 07:48:27;;;;;;;2.03;0.98;;;21.60;46.20;;;;;;10365120;28;20049;-59
2024/02/20 07:53:28;;;;;;;1.38;0.77;;;21.50;46.20;;;;;;10362955;28;20140;-58
2024/02/20 07:58:31;;;;;;;1.70;1.08;;;21.40;46.10;;;;;;10357931;28;20133;-58
2024/02/20 08:03:34;;;;;;;1.70;0.90;;;21.40;46.20;;;;;;10355800;28;20043;-60
2024/02/20 08:08:35;;;;;;;2.55;1.00;;;21.50;46.10;;;;;;10351767;28;20057;-56
2024/02/20 08:13:41;;;;;;;2.60;1.00;;;21.40;46.10;;;;;;10351088;28;20411;-56
2024/02/20 08:18:47;;;;;;;1.35;0.75;;;21.30;46.20;;;;;;10355996;28;20134;-57
2024/02/20 08:23:48;;;;;;;1.60;0.82;;;21.40;46.00;;;;;;10357384;28;20042;-57
2024/02/20 08:28:50;;;;;;;2.85;0.90;;;21.30;46.40;;;;;;10357141;28;20053;-59
2024/02/20 08:33:53;;;;;;;2.25;1.00;;;21.40;46.40;;;;;;10353735;28;20054;-56
2024/02/20 08:38:54;;;;;;;2.22;0.82;;;21.40;46.20;;;;;;10349193;28;20484;-59
2024/02/20 08:43:56;;;;;;;1.63;0.77;;;21.40;46.40;;;;;;10347614;28;20394;-58
2024/02/20 08:48:59;;;;;;;1.85;0.80;;;21.30;46.40;;;;;;10349539;28;20085;-58
2024/02/20 08:54:00;;;;;;;1.98;0.90;;;21.40;46.40;;;;;;10364548;28;20050;-59
2024/02/20 08:59:04;;;;;;;2.85;1.15;;;21.60;46.10;;;;;;10358082;28;20137;-58
2024/02/20 09:04:08;;;;;;;1.85;0.80;;;21.50;46.10;;;;;;10356733;28;20132;-58
2024/02/20 09:09:09;;;;;;;1.23;0.70;;;21.50;46.10;;;;;;10354491;28;20082;-59
2024/02/20 09:14:11;;;;;;;2.10;0.90;;;21.60;46.20;;;;;;10352304;28;20056;-59
2024/02/20 09:19:15;;;;;;;2.20;0.82;;;21.60;46.20;;;;;;10348099;28;20041;-58
2024/02/20 09:24:17;;;;;;;1.88;0.80;;;21.60;46.00;;;;;;10346655;28;20045;-59
2024/02/20 09:29:21;;;;;;;1.50;0.80;;;21.70;45.90;;;;;;10346165;28;20084;-57
2024/02/20 09:34:24;;;;;;;2.38;0.88;;;21.70;45.90;;;;;;10349815;28;20057;-59
2024/02/20 09:39:26;;;;;;;2.50;1.20;;;21.60;45.90;;;;;;10352178;28;20037;-59
2024/02/20 09:44:29;;;;;;;1.92;0.80;;;21.60;46.00;;;;;;10352680;28;20562;-58
2024/02/20 09:49:32;;;;;;;1.75;0.80;;;21.40;46.20;;;;;;10348657;28;20576;-56
2024/02/20 09:54:34;;;;;;;2.38;1.00;;;21.60;45.80;;;;;;10347328;28;20416;-59
2024/02/20 09:59:35;;;;;;;1.70;0.80;;;21.60;45.90;;;;;;10346306;28;20412;-58
2024/02/20 10:04:38;;;;;;;4.25;0.98;;;21.50;46.20;;;;;;10357286;28;20072;-58
2024/02/20 10:09:40;;;;;;;2.75;1.00;;;21.40;46.50;;;;;;10361117;28;20046;-59
2024/02/20 10:14:41;;;;;;;1.65;0.80;;;21.30;46.50;;;;;;10358819;28;20089;-56
2024/02/20 10:19:44;;;;;;;1.42;0.80;;;21.40;46.60;;;;;;10356306;28;20060;-58
2024/02/20 10:24:46;;;;;;;2.05;0.90;;;21.40;46.60;;;;;;10351480;28;20050;-58
2024/02/20 10:29:47;;;;;;;2.17;0.90;;;21.30;46.70;;;;;;10345931;28;20050;-57
2024/02/20 10:34:59;;;;;;;1.33;0.73;;;21.40;46.60;;;;;;10345518;28;20504;-58
2024/02/20 10:40:05;;;;;;;2.65;0.77;;;21.50;46.40;;;;;;10345774;28;20053;-58
2024/02/20 10:45:08;;;;;;;2.22;0.80;;;21.40;46.60;;;;;;10354267;28;20153;-56
2024/02/20 10:50:12;;;;;;;1.02;0.65;;;21.40;46.60;;;;;;10351808;28;20042;-57
2024/02/20 10:55:14;;;;;;;1.60;0.80;;;21.40;46.60;;;;;;10347389;28;20046;-59
2024/02/20 11:00:18;;;;;;;1.10;0.70;;;21.40;46.60;;;;;;10349054;28;20050;-59
2024/02/20 11:05:23;;;;;;;2.17;0.90;;;21.30;46.90;;;;;;10352501;28;20132;-58
2024/02/20 11:10:26;;;;;;;1.90;0.70;;;21.30;46.90;;;;;;10345539;28;20108;-58
2024/02/20 11:15:28;;;;;;;1.70;0.80;;;21.20;47.00;;;;;;10355684;28;20049;-56
2024/02/20 11:20:31;;;;;;;1.95;0.75;;;21.20;47.10;;;;;;10353805;28;20046;-58
2024/02/20 11:25:34;;;;;;;2.30;0.80;;;21.20;46.70;;;;;;10360000;28;20053;-57
2024/02/20 11:30:37;;;;;;;1.75;0.80;;;21.20;46.70;;;;;;10357233;28;20554;-58
2024/02/20 11:35:40;;;;;;;1.73;0.75;;;21.40;46.30;;;;;;10358336;28;20133;-57
2024/02/20 11:40:42;;;;;;;1.95;0.80;;;21.30;46.20;;;;;;10356785;28;20512;-55
2024/02/20 11:45:44;;;;;;;2.45;0.80;;;21.10;46.70;;;;;;10358875;28;20509;-59
2024/02/20 11:50:47;;;;;;;1.25;0.70;;;21.20;46.70;;;;;;10359730;28;20050;-57
2024/02/20 11:55:51;;;;;;;1.98;0.77;;;21.20;46.80;;;;;;10358358;28;20496;-59
2024/02/20 12:00:54;;;;;;;1.48;0.88;;;21.20;46.80;;;;;;10355835;28;20484;-57
2024/02/20 12:06:00;;;;;;;2.55;0.82;;;21.20;46.80;;;;;;10354026;28;20044;-58
2024/02/20 12:11:05;;;;;;;1.77;0.80;;;21.30;46.80;;;;;;10353063;28;20050;-57
2024/02/20 12:16:17;;;;;;;1.85;0.88;;;21.30;46.70;;;;;;10353051;28;20060;-58
2024/02/20 12:21:25;;;;;;;2.20;0.98;;;21.30;46.60;;;;;;10357005;28;20518;-58
2024/02/20 12:26:27;;;;;;;1.73;0.90;;;21.40;46.60;;;;;;10360397;28;20046;-59
2024/02/20 12:31:30;;;;;;;1.55;0.70;;;21.40;46.50;;;;;;10364225;28;20052;-59
2024/02/20 12:36:33;;;;;;;2.22;0.88;;;21.40;46.60;;;;;;10361274;28;20060;-58
2024/02/20 12:41:35;;;;;;;1.38;0.60;;;21.30;46.60;;;;;;10360023;28;20412;-59
2024/02/20 12:46:37;;;;;;;1.13;0.73;;;21.40;46.60;;;;;;10357770;28;20046;-59
2024/02/20 12:51:40;;;;;;;2.30;0.73;;;21.30;46.90;;;;;;10357483;28;20096;-59
2024/02/20 12:56:41;;;;;;;0.82;0.60;;;21.20;47.10;;;;;;10360418;28;20080;-56
2024/02/20 13:01:43;;;;;;;1.42;0.70;;;21.20;46.90;;;;;;10362049;28;20049;-57
2024/02/20 13:06:46;;;;;;;1.52;0.75;;;21.00;47.00;;;;;;10357671;28;20045;-58
2024/02/20 13:11:47;;;;;;;1.90;0.80;;;21.10;47.00;;;;;;10352699;28;20045;-58
2024/02/20 13:16:49;;;;;;;3.03;0.90;;;21.00;47.00;;;;;;10348131;28;20625;-58
2024/02/20 13:21:52;;;;;;;1.48;0.70;;;21.10;46.80;;;;;;10346730;28;20054;-59
2024/02/20 13:26:54;;;;;;;1.55;0.80;;;21.20;46.60;;;;;;10349124;28;20050;-59
2024/02/20 13:31:55;;;;;;;1.33;0.80;;;20.90;47.20;;;;;;10356078;28;20058;-59
2024/02/20 13:36:59;;;;;;;1.38;0.80;;;21.00;47.10;;;;;;10357536;28;20065;-59
2024/02/20 13:42:01;;;;;;;1.48;0.60;;;21.20;46.80;;;;;;10360897;28;20070;-58
2024/02/20 13:47:03;;;;;;;1.80;0.60;;;21.60;45.90;;;;;;10364019;28;20048;-57
2024/02/20 13:52:06;;;;;;;1.95;0.80;;;21.60;46.00;;;;;;10361247;28;20496;-59
2024/02/20 13:57:07;;;;;;;1.25;0.70;;;21.80;45.50;;;;;;10354182;28;20046;-58
2024/02/20 14:02:11;;;;;;;2.00;0.90;;;21.80;45.60;;;;;;10347911;28;20042;-56
2024/02/20 14:07:14;;;;;;;1.10;0.65;;;21.70;45.70;;;;;;10362553;28;20138;-58
2024/02/20 14:12:15;;;;;;;1.60;0.82;;;21.60;45.90;;;;;;10361451;28;20479;-58
2024/02/20 14:17:19;;;;;;;1.35;0.70;;;21.70;45.80;;;;;;10356616;28;20033;-58
2024/02/20 14:22:23;;;;;;;1.52;0.80;;;21.80;45.50;;;;;;10348975;28;20045;-58
2024/02/20 14:27:24;;;;;;;1.75;0.68;;;22.00;45.20;;;;;;10345200;28;20054;-58
2024/02/20 14:32:26;;;;;;;2.25;0.75;;;22.00;45.10;;;;;;10343091;28;20133;-56
2024/02/20 14:37:29;;;;;;;2.20;0.90;;;22.10;45.10;;;;;;10345258;28;20046;-57
2024/02/20 14:42:31;;;;;;;2.10;0.90;;;22.00;45.10;;;;;;10352569;28;20138;-58
2024/02/20 14:47:32;;;;;;;0.82;0.60;;;22.00;45.40;;;;;;10351922;28;20412;-59
2024/02/20 14:52:35;;;;;;;1.23;0.70;;;22.00;45.40;;;;;;10358124;28;20133;-58
2024/02/20 14:57:39;;;;;;;1.30;0.68;;;22.00;45.40;;;;;;10358951;28;20051;-57
2024/02/20 15:02:41;;;;;;;1.80;0.80;;;22.00;45.60;;;;;;10358915;28;20051;-59
2024/02/20 15:07:43;;;;;;;1.75;0.70;;;21.90;45.60;;;;;;10355085;28;20134;-59
2024/02/20 15:12:45;;;;;;;1.63;0.80;;;22.00;45.60;;;;;;10361068;28;20049;-56
2024/02/20 15:17:47;;;;;;;2.10;0.82;;;22.10;45.60;;;;;;10359081;28;20046;-55
2024/02/20 15:22:50;;;;;;;0.95;0.60;;;22.00;45.70;;;;;;10365720;28;20050;-57
2024/02/20 15:27:52;;;;;;;0.95;0.70;;;22.10;45.70;;;;;;10362251;28;20058;-52
2024/02/20 15:32:53;;;;;;;1.27;0.70;;;22.20;45.30;;;;;;10357933;28;20038;-55
2024/02/20 15:37:56;;;;;;;2.38;0.98;;;22.20;45.50;;;;;;10369516;28;20133;-57
2024/02/20 15:42:58;;;;;;;0.80;0.60;;;22.20;45.50;;;;;;10364055;28;20052;-59
2024/02/20 15:47:59;;;;;;;1.27;0.60;;;22.10;45.60;;;;;;10361665;28;20038;-57
2024/02/20 15:53:02;;;;;;;2.03;0.77;;;22.20;45.40;;;;;;10365124;28;20050;-58
2024/02/20 15:58:07;;;;;;;1.52;0.73;;;22.20;45.50;;;;;;10358001;28;20052;-57
2024/02/20 16:03:10;;;;;;;2.30;0.80;;;22.20;45.40;;;;;;10363063;28;20125;-58
2024/02/20 16:08:15;;;;;;;1.88;0.80;;;22.20;45.60;;;;;;10360122;28;20146;-58
2024/02/20 16:13:17;;;;;;;1.30;0.63;;;22.20;45.70;;;;;;10360671;28;20046;-57
2024/02/20 16:18:19;;;;;;;2.00;0.88;;;22.30;45.60;;;;;;10364312;28;20038;-59
2024/02/20 16:23:21;;;;;;;1.10;0.80;;;22.30;45.40;;;;;;10362630;28;20419;-59
2024/02/20 16:28:23;;;;;;;1.88;0.80;;;22.30;45.50;;;;;;10364258;28;20056;-59
2024/02/20 16:33:27;;;;;;;1.17;0.60;;;22.30;45.50;;;;;;10358103;28;20050;-59
2024/02/20 16:38:30;;;;;;;1.10;0.63;;;22.40;45.50;;;;;;10362787;28;20050;-58
2024/02/20 16:43:35;;;;;;;1.25;0.70;;;22.30;45.50;;;;;;10362602;28;20050;-55
2024/02/20 16:48:37;;;;;;;1.42;0.80;;;22.30;45.40;;;;;;10361273;28;20112;-58
2024/02/20 16:53:40;;;;;;;1.65;0.70;;;22.40;45.40;;;;;;10355056;28;20420;-59
2024/02/20 16:58:42;;;;;;;2.40;0.70;;;22.40;45.50;;;;;;10363231;28;20038;-57
2024/02/20 17:03:43;;;;;;;1.90;0.88;;;22.40;45.60;;;;;;10358943;28;20053;-59
2024/02/20 17:08:46;;;;;;;1.50;0.80;;;22.40;45.60;;;;;;10354907;28;20867;-59
2024/02/20 17:13:48;;;;;;;1.38;0.60;;;22.40;45.60;;;;;;10352211;28;20046;-56
2024/02/20 17:18:50;;;;;;;1.35;0.70;;;22.50;45.40;;;;;;10358520;28;20050;-58
2024/02/20 17:23:53;;;;;;;1.45;0.65;;;22.60;45.20;;;;;;10358365;28;20135;-55
2024/02/20 17:28:54;;;;;;;1.25;0.80;;;22.50;45.40;;;;;;10354927;28;20038;-56
2024/02/20 17:33:57;;;;;;;0.98;0.80;;;22.50;45.40;;;;;;10361094;28;20058;-58
2024/02/20 17:39:00;;;;;;;1.42;0.55;;;22.50;45.40;;;;;;10352557;28;20044;-57
2024/02/20 17:44:02;;;;;;;1.67;0.80;;;22.60;45.40;;;;;;10359513;28;20052;-57
2024/02/20 17:49:03;;;;;;;1.67;0.75;;;22.50;45.60;;;;;;10352162;28;20049;-58
2024/02/20 17:54:07;;;;;;;2.08;1.10;;;22.50;45.60;;;;;;10351477;28;20054;-57
2024/02/20 17:59:09;;;;;;;2.10;0.70;;;22.50;45.50;;;;;;10361141;28;20108;-59
2024/02/20 18:04:10;;;;;;;1.50;0.68;;;22.50;45.70;;;;;;10356793;28;20049;-57
2024/02/20 18:09:13;;;;;;;1.13;0.60;;;22.60;45.40;;;;;;10354310;28;20049;-56
2024/02/20 18:14:15;;;;;;;1.88;1.00;;;22.60;45.40;;;;;;10353971;28;20046;-57
2024/02/20 18:19:17;;;;;;;1.52;0.80;;;22.80;45.10;;;;;;10357454;28;20058;-58
2024/02/20 18:24:20;;;;;;;0.75;0.60;;;22.60;45.30;;;;;;10343939;28;20458;-58
2024/02/20 18:29:21;;;;;;;1.00;0.70;;;22.60;45.40;;;;;;10353953;28;20092;-59
2024/02/20 18:34:23;;;;;;;1.50;0.75;;;22.70;45.40;;;;;;10358713;28;20037;-58
2024/02/20 18:39:32;;;;;;;1.00;0.70;;;22.70;45.40;;;;;;10355229;28;20038;-58
2024/02/20 18:44:34;;;;;;;1.00;0.68;;;22.70;45.50;;;;;;10362507;28;20046;-58
2024/02/20 18:49:36;;;;;;;1.38;0.80;;;22.70;45.40;;;;;;10364361;28;20052;-57
2024/02/20 18:54:39;;;;;;;0.93;0.70;;;22.70;45.40;;;;;;10360295;28;20440;-59
2024/02/20 18:59:40;;;;;;;1.45;0.70;;;22.70;45.60;;;;;;10359296;28;20050;-59
2024/02/20 19:04:42;;;;;;;1.35;0.52;;;22.70;45.60;;;;;;10356323;28;20050;-59
2024/02/20 19:09:45;;;;;;;1.38;0.75;;;22.80;45.30;;;;;;10353904;28;20145;-58
2024/02/20 19:14:47;;;;;;;1.58;0.70;;;22.80;45.20;;;;;;10361495;28;20111;-59
2024/02/20 19:19:49;;;;;;;0.65;0.57;;;22.90;45.10;;;;;;10362180;28;20141;-58
2024/02/20 19:24:52;;;;;;;1.13;0.60;;;23.00;44.90;;;;;;10363114;28;20050;-59
2024/02/20 19:29:56;;;;;;;1.13;0.60;;;23.00;45.00;;;;;;10362566;28;20051;-59
2024/02/20 19:34:57;;;;;;;1.50;0.70;;;22.90;45.10;;;;;;10359585;28;20488;-59
2024/02/20 19:40:00;;;;;;;0.70;0.60;;;22.80;45.20;;;;;;10373172;28;20046;-59
2024/02/20 19:45:03;;;;;;;1.08;0.65;;;22.70;45.20;;;;;;10363570;28;20050;-57
2024/02/20 19:50:05;;;;;;;1.00;0.70;;;22.60;45.40;;;;;;10368153;28;20068;-55
2024/02/20 19:55:09;;;;;;;0.80;0.60;;;22.60;45.40;;;;;;10370088;28;20152;-53
2024/02/20 20:00:12;;;;;;;1.33;0.82;;;22.50;45.40;;;;;;10359640;28;20074;-55
2024/02/20 20:05:14;;;;;;;1.08;0.75;;;22.60;45.50;;;;;;10352567;28;20050;-53
2024/02/20 20:10:18;;;;;;;2.00;0.82;;;22.40;46.20;;;;;;10349727;28;20054;-56
2024/02/20 20:15:20;;;;;;;0.90;0.60;;;22.50;45.40;;;;;;10354466;28;20058;-59
2024/02/20 20:20:22;;;;;;;1.33;0.75;;;22.50;45.30;;;;;;10359009;28;20506;-56
2024/02/20 20:25:25;;;;;;;2.00;1.00;;;22.50;45.40;;;;;;10359199;28;20072;-59
2024/02/20 20:30:26;;;;;;;1.90;1.13;;;22.50;45.20;;;;;;10354872;28;20129;-58
2024/02/20 20:35:28;;;;;;;1.60;1.00;;;22.40;45.40;;;;;;10354479;28;20050;-58
2024/02/20 20:40:31;;;;;;;2.90;1.08;;;22.40;45.30;;;;;;10357703;28;20042;-57
2024/02/20 20:45:32;;;;;;;1.60;0.80;;;22.30;45.60;;;;;;10356476;28;20089;-56
2024/02/20 20:50:34;;;;;;;2.05;0.70;;;22.40;45.30;;;;;;10353433;28;20064;-57
2024/02/20 20:55:38;;;;;;;3.28;1.08;;;22.30;45.20;;;;;;10363891;28;20129;-58
2024/02/20 21:00:40;;;;;;;1.50;0.95;;;22.40;45.00;;;;;;10360470;28;20078;-58
2024/02/20 21:05:42;;;;;;;1.55;0.80;;;22.20;45.20;;;;;;10359089;28;20056;-58
2024/02/20 21:10:45;;;;;;;3.03;1.00;;;22.20;45.20;;;;;;10357603;28;20056;-58
2024/02/20 21:15:47;;;;;;;1.70;1.08;;;22.20;45.10;;;;;;10359631;28;20519;-58
2024/02/20 21:20:48;;;;;;;1.75;1.00;;;22.20;45.10;;;;;;10354474;28;20136;-57
2024/02/20 21:25:51;;;;;;;1.92;1.00;;;22.30;44.80;;;;;;10350150;28;20052;-56
2024/02/20 21:30:53;;;;;;;3.00;1.10;;;22.40;44.40;;;;;;10352223;28;20060;-58
2024/02/20 21:35:54;;;;;;;1.65;0.90;;;22.20;44.80;;;;;;10355856;28;20671;-56
2024/02/20 21:40:57;;;;;;;2.03;1.00;;;22.10;44.70;;;;;;10355221;28;20382;-59
2024/02/20 21:45:59;;;;;;;1.85;1.05;;;22.20;44.50;;;;;;10350103;28;20076;-59
2024/02/20 21:51:00;;;;;;;1.83;0.82;;;22.20;44.50;;;;;;10352570;28;20049;-59
2024/02/20 21:56:04;;;;;;;2.47;1.15;;;22.20;44.50;;;;;;10354877;28;20053;-55
2024/02/20 22:01:06;;;;;;;3.72;1.52;;;22.20;44.50;;;;;;10354160;28;20041;-57
2024/02/20 22:06:07;;;;;;;3.03;1.25;;;22.20;44.40;;;;;;10355104;28;20054;-57
2024/02/20 22:11:10;;;;;;;1.70;1.10;;;22.30;44.00;;;;;;10355823;28;20141;-54
2024/02/20 22:16:12;;;;;;;2.65;1.20;;;22.30;44.00;;;;;;10358496;28;20056;-59
2024/02/20 22:21:16;;;;;;;1.60;0.95;;;22.20;44.30;;;;;;10357380;28;20444;-58
2024/02/20 22:26:19;;;;;;;1.88;0.93;;;22.10;44.30;;;;;;10359034;28;20054;-57
2024/02/20 22:31:21;;;;;;;1.98;1.00;;;22.20;44.10;;;;;;10353827;28;20041;-60
2024/02/20 22:36:22;;;;;;;1.75;0.90;;;22.10;44.20;;;;;;10349495;28;20130;-59
2024/02/20 22:41:27;;;;;;;2.20;1.00;;;22.10;44.20;;;;;;10345497;28;20116;-57
2024/02/20 22:46:29;;;;;;;1.88;1.00;;;22.10;44.20;;;;;;10353444;28;20049;-60
2024/02/20 22:51:30;;;;;;;1.55;1.00;;;22.00;44.20;;;;;;10353172;28;20522;-59
2024/02/20 22:56:34;;;;;;;1.80;1.05;;;21.90;44.30;;;;;;10348752;28;20076;-58
2024/02/20 23:01:35;;;;;;;1.83;0.90;;;21.90;44.40;;;;;;10351052;28;20070;-58
2024/02/20 23:06:40;;;;;;;1.52;0.90;;;21.90;44.40;;;;;;10350475;28;20045;-57
2024/02/20 23:11:44;;;;;;;2.55;1.08;;;21.90;44.30;;;;;;10353330;28;20047;-56
2024/02/20 23:16:47;;;;;;;1.60;1.00;;;21.90;44.30;;;;;;10354758;28;20141;-58
2024/02/20 23:21:49;;;;;;;2.42;1.00;;;21.80;44.40;;;;;;10355886;28;20086;-59
2024/02/20 23:26:51;;;;;;;1.38;0.90;;;21.70;44.50;;;;;;10358530;28;20923;-57
2024/02/20 23:31:53;;;;;;;1.50;1.00;;;21.70;44.50;;;;;;10359348;28;20057;-59
2024/02/20 23:36:55;;;;;;;2.22;1.05;;;21.70;44.50;;;;;;10361830;28;20143;-59
2024/02/20 23:41:58;;;;;;;2.38;1.20;;;21.60;44.60;;;;;;10360818;28;20049;-57
2024/02/20 23:46:59;;;;;;;2.53;1.15;;;21.50;44.60;;;;;;10359635;28;20046;-58
2024/02/20 23:52:01;;;;;;;2.03;1.20;;;21.60;44.70;;;;;;10356522;28;20408;-56
2024/02/20 23:57:05;;;;;;;2.15;1.20;;;21.50;44.90;;;;;;10354109;28;20137;-56
